Antwerp, Belgium
Current Conditions -  °F | °C
As of 6:50 AM on Thursday 23 Oct 2014 (Local Time) from EBAW Reporting Station
Broken Clouds Broken Clouds  
Wind Chill: 10°   Ceiling: 2900
Heat Index: 10°   Visibility: 6mi
Dew Point:   Wind: 7mph
Humidity: 82%   Direction: 220°SW
Pressure: 30.18"   Gusts: NA
Location:  51.26°N, 4.36°E
Report Text: EBAW 230450Z 22006KT 9999 BKN029 10/07 Q1022 NOSIG
Loading
Personal Weather Stations






























Interactive Weather Map
Tropical Storm Tracking
New forecast layout! Learn more

10-Day Weather Forecast

Advertisements
Track Severe Weather on mobile